sensor_id;sensor_type;location;lat;lon;timestamp;temperature;humidity
52543;DHT22;38449;52.696;6.186;2022-11-02T00:01:26;12.60;99.90
52543;DHT22;38449;52.696;6.186;2022-11-02T00:03:52;12.50;99.90
52543;DHT22;38449;52.696;6.186;2022-11-02T00:06:18;12.60;99.90
52543;DHT22;38449;52.696;6.186;2022-11-02T00:08:44;12.50;99.90
52543;DHT22;38449;52.696;6.186;2022-11-02T00:11:10;12.50;99.90
52543;DHT22;38449;52.696;6.186;2022-11-02T00:13:35;12.50;99.90
52543;DHT22;38449;52.696;6.186;2022-11-02T00:16:07;12.50;99.90
52543;DHT22;38449;52.696;6.186;2022-11-02T00:18:36;12.50;99.90
52543;DHT22;38449;52.696;6.186;2022-11-02T00:21:02;12.50;99.90
52543;DHT22;38449;52.696;6.186;2022-11-02T00:23:29;12.50;99.90
52543;DHT22;38449;52.696;6.186;2022-11-02T00:25:55;12.50;99.90
52543;DHT22;38449;52.696;6.186;2022-11-02T00:28:21;12.60;99.90
52543;DHT22;38449;52.696;6.186;2022-11-02T00:30:47;12.60;99.90
52543;DHT22;38449;52.696;6.186;2022-11-02T00:33:13;12.60;99.90
52543;DHT22;38449;52.696;6.186;2022-11-02T00:35:39;12.70;99.90
52543;DHT22;38449;52.696;6.186;2022-11-02T00:38:05;12.70;99.90
52543;DHT22;38449;52.696;6.186;2022-11-02T00:40:31;12.70;99.90
52543;DHT22;38449;52.696;6.186;2022-11-02T00:42:56;12.70;99.90
52543;DHT22;38449;52.696;6.186;2022-11-02T00:45:22;12.70;99.90
52543;DHT22;38449;52.696;6.186;2022-11-02T00:47:48;12.70;99.90
52543;DHT22;38449;52.696;6.186;2022-11-02T00:50:14;12.60;99.90
52543;DHT22;38449;52.696;6.186;2022-11-02T00:52:40;12.50;99.90
52543;DHT22;38449;52.696;6.186;2022-11-02T00:55:08;12.50;99.90
52543;DHT22;38449;52.696;6.186;2022-11-02T00:57:34;12.40;99.90
52543;DHT22;38449;52.696;6.186;2022-11-02T01:00:00;12.40;99.90
52543;DHT22;38449;52.696;6.186;2022-11-02T01:02:26;12.30;99.90
52543;DHT22;38449;52.696;6.186;2022-11-02T01:04:51;12.30;99.90
52543;DHT22;38449;52.696;6.186;2022-11-02T01:07:17;12.40;99.90
52543;DHT22;38449;52.696;6.186;2022-11-02T01:09:42;12.30;99.90
52543;DHT22;38449;52.696;6.186;2022-11-02T01:12:08;12.30;99.90
52543;DHT22;38449;52.696;6.186;2022-11-02T01:14:34;12.20;99.90
52543;DHT22;38449;52.696;6.186;2022-11-02T01:17:00;12.30;99.90
52543;DHT22;38449;52.696;6.186;2022-11-02T01:19:25;12.30;99.90
52543;DHT22;38449;52.696;6.186;2022-11-02T01:21:51;12.30;99.90
52543;DHT22;38449;52.696;6.186;2022-11-02T01:24:17;12.30;99.90
52543;DHT22;38449;52.696;6.186;2022-11-02T01:26:42;12.30;99.90
52543;DHT22;38449;52.696;6.186;2022-11-02T01:29:08;12.30;99.90
52543;DHT22;38449;52.696;6.186;2022-11-02T01:31:33;12.30;99.90
52543;DHT22;38449;52.696;6.186;2022-11-02T01:33:59;12.30;99.90
52543;DHT22;38449;52.696;6.186;2022-11-02T01:36:25;12.30;99.90
52543;DHT22;38449;52.696;6.186;2022-11-02T01:38:50;12.20;99.90
52543;DHT22;38449;52.696;6.186;2022-11-02T01:41:16;12.30;99.90
52543;DHT22;38449;52.696;6.186;2022-11-02T01:43:47;12.30;99.90
52543;DHT22;38449;52.696;6.186;2022-11-02T01:46:22;12.40;99.90
52543;DHT22;38449;52.696;6.186;2022-11-02T01:48:54;12.40;99.90
52543;DHT22;38449;52.696;6.186;2022-11-02T01:51:24;12.40;99.90
52543;DHT22;38449;52.696;6.186;2022-11-02T01:53:51;12.50;99.90
52543;DHT22;38449;52.696;6.186;2022-11-02T01:56:21;12.50;99.90
52543;DHT22;38449;52.696;6.186;2022-11-02T01:58:52;12.50;99.90
52543;DHT22;38449;52.696;6.186;2022-11-02T02:01:19;12.50;99.90
52543;DHT22;38449;52.696;6.186;2022-11-02T02:03:45;12.50;99.90
52543;DHT22;38449;52.696;6.186;2022-11-02T02:06:13;12.50;99.90
52543;DHT22;38449;52.696;6.186;2022-11-02T02:08:43;12.40;99.90
52543;DHT22;38449;52.696;6.186;2022-11-02T02:14:05;12.20;99.90
52543;DHT22;38449;52.696;6.186;2022-11-02T02:19:05;12.00;99.90
52543;DHT22;38449;52.696;6.186;2022-11-02T02:27:27;11.70;99.90
52543;DHT22;38449;52.696;6.186;2022-11-02T02:30:02;11.70;99.90
52543;DHT22;38449;52.696;6.186;2022-11-02T02:35:27;11.70;99.90
52543;DHT22;38449;52.696;6.186;2022-11-02T02:38:02;11.70;99.90
52543;DHT22;38449;52.696;6.186;2022-11-02T02:40:32;11.80;99.90
52543;DHT22;38449;52.696;6.186;2022-11-02T02:43:06;11.80;99.90
52543;DHT22;38449;52.696;6.186;2022-11-02T02:45:36;11.80;99.90
52543;DHT22;38449;52.696;6.186;2022-11-02T02:48:16;11.80;99.90
52543;DHT22;38449;52.696;6.186;2022-11-02T02:51:07;11.80;99.90
52543;DHT22;38449;52.696;6.186;2022-11-02T02:53:44;11.80;99.90
52543;DHT22;38449;52.696;6.186;2022-11-02T02:56:12;11.70;99.90
52543;DHT22;38449;52.696;6.186;2022-11-02T02:58:48;11.70;99.90
52543;DHT22;38449;52.696;6.186;2022-11-02T03:01:16;11.70;99.90
52543;DHT22;38449;52.696;6.186;2022-11-02T03:03:43;11.60;99.90
52543;DHT22;38449;52.696;6.186;2022-11-02T03:08:36;11.50;99.90
52543;DHT22;38449;52.696;6.186;2022-11-02T03:11:22;11.40;99.90
52543;DHT22;38449;52.696;6.186;2022-11-02T03:17:05;11.30;99.90
52543;DHT22;38449;52.696;6.186;2022-11-02T03:19:37;11.20;99.90
52543;DHT22;38449;52.696;6.186;2022-11-02T03:25:16;11.10;99.90
52543;DHT22;38449;52.696;6.186;2022-11-02T03:28:04;11.10;99.90
52543;DHT22;38449;52.696;6.186;2022-11-02T03:30:39;11.10;99.90
52543;DHT22;38449;52.696;6.186;2022-11-02T03:33:15;11.10;99.90
52543;DHT22;38449;52.696;6.186;2022-11-02T03:35:54;11.10;99.90
52543;DHT22;38449;52.696;6.186;2022-11-02T03:38:35;11.10;99.90
52543;DHT22;38449;52.696;6.186;2022-11-02T03:41:04;11.10;99.90
52543;DHT22;38449;52.696;6.186;2022-11-02T03:43:32;11.10;99.90
52543;DHT22;38449;52.696;6.186;2022-11-02T03:46:00;11.10;99.90
52543;DHT22;38449;52.696;6.186;2022-11-02T03:48:30;11.20;99.90
52543;DHT22;38449;52.696;6.186;2022-11-02T03:50:59;11.20;99.90
52543;DHT22;38449;52.696;6.186;2022-11-02T03:53:38;11.20;99.90
52543;DHT22;38449;52.696;6.186;2022-11-02T03:56:11;11.10;99.90
52543;DHT22;38449;52.696;6.186;2022-11-02T03:58:38;11.20;99.90
52543;DHT22;38449;52.696;6.186;2022-11-02T04:01:06;11.10;99.90
52543;DHT22;38449;52.696;6.186;2022-11-02T04:03:39;11.20;99.90
52543;DHT22;38449;52.696;6.186;2022-11-02T04:06:07;11.20;99.90
52543;DHT22;38449;52.696;6.186;2022-11-02T04:08:38;11.20;99.90
52543;DHT22;38449;52.696;6.186;2022-11-02T04:11:05;11.10;99.90
52543;DHT22;38449;52.696;6.186;2022-11-02T04:13:49;11.10;99.90
52543;DHT22;38449;52.696;6.186;2022-11-02T04:16:33;11.10;99.90
52543;DHT22;38449;52.696;6.186;2022-11-02T04:18:59;11.20;99.90
52543;DHT22;38449;52.696;6.186;2022-11-02T04:21:43;11.20;99.90
52543;DHT22;38449;52.696;6.186;2022-11-02T04:24:29;11.20;99.90
52543;DHT22;38449;52.696;6.186;2022-11-02T04:27:14;11.20;99.90
52543;DHT22;38449;52.696;6.186;2022-11-02T04:29:39;11.20;99.90
52543;DHT22;38449;52.696;6.186;2022-11-02T04:32:05;11.20;99.90
52543;DHT22;38449;52.696;6.186;2022-11-02T04:34:30;11.20;99.90
52543;DHT22;38449;52.696;6.186;2022-11-02T04:36:56;11.30;99.90
52543;DHT22;38449;52.696;6.186;2022-11-02T04:39:22;11.30;99.90
52543;DHT22;38449;52.696;6.186;2022-11-02T04:41:47;11.30;99.90
52543;DHT22;38449;52.696;6.186;2022-11-02T04:44:13;11.40;99.90
52543;DHT22;38449;52.696;6.186;2022-11-02T04:46:40;11.40;99.90
52543;DHT22;38449;52.696;6.186;2022-11-02T04:49:06;11.50;99.90
52543;DHT22;38449;52.696;6.186;2022-11-02T04:51:31;11.50;99.90
52543;DHT22;38449;52.696;6.186;2022-11-02T04:53:57;11.40;99.90
52543;DHT22;38449;52.696;6.186;2022-11-02T04:56:24;11.40;99.90
52543;DHT22;38449;52.696;6.186;2022-11-02T04:58:52;11.50;99.90
52543;DHT22;38449;52.696;6.186;2022-11-02T05:01:19;11.50;99.90
52543;DHT22;38449;52.696;6.186;2022-11-02T05:03:49;11.50;99.90
52543;DHT22;38449;52.696;6.186;2022-11-02T05:06:16;11.50;99.90
52543;DHT22;38449;52.696;6.186;2022-11-02T05:08:42;11.50;99.90
52543;DHT22;38449;52.696;6.186;2022-11-02T05:11:08;11.60;99.90
52543;DHT22;38449;52.696;6.186;2022-11-02T05:13:35;11.60;99.90
52543;DHT22;38449;52.696;6.186;2022-11-02T05:16:01;11.60;99.90
52543;DHT22;38449;52.696;6.186;2022-11-02T05:18:27;11.60;99.90
52543;DHT22;38449;52.696;6.186;2022-11-02T05:20:58;11.50;99.90
52543;DHT22;38449;52.696;6.186;2022-11-02T05:23:24;11.40;99.90
52543;DHT22;38449;52.696;6.186;2022-11-02T05:25:58;11.40;99.90
52543;DHT22;38449;52.696;6.186;2022-11-02T05:28:25;11.30;99.90
52543;DHT22;38449;52.696;6.186;2022-11-02T05:30:52;11.30;99.90
52543;DHT22;38449;52.696;6.186;2022-11-02T05:33:18;11.30;99.90
52543;DHT22;38449;52.696;6.186;2022-11-02T05:35:44;11.30;99.90
52543;DHT22;38449;52.696;6.186;2022-11-02T05:38:09;11.30;99.90
52543;DHT22;38449;52.696;6.186;2022-11-02T05:40:35;11.30;99.90
52543;DHT22;38449;52.696;6.186;2022-11-02T05:43:03;11.30;99.90
52543;DHT22;38449;52.696;6.186;2022-11-02T05:45:29;11.30;99.90
52543;DHT22;38449;52.696;6.186;2022-11-02T05:47:55;11.30;99.90
52543;DHT22;38449;52.696;6.186;2022-11-02T05:50:20;11.30;99.90
52543;DHT22;38449;52.696;6.186;2022-11-02T05:52:46;11.30;99.90
52543;DHT22;38449;52.696;6.186;2022-11-02T05:55:12;11.30;99.90
52543;DHT22;38449;52.696;6.186;2022-11-02T05:57:37;11.30;99.90
52543;DHT22;38449;52.696;6.186;2022-11-02T06:00:04;11.30;99.90
52543;DHT22;38449;52.696;6.186;2022-11-02T06:02:32;11.30;99.90
52543;DHT22;38449;52.696;6.186;2022-11-02T06:04:58;11.30;99.90
52543;DHT22;38449;52.696;6.186;2022-11-02T06:07:24;11.30;99.90
52543;DHT22;38449;52.696;6.186;2022-11-02T06:09:49;11.30;99.90
52543;DHT22;38449;52.696;6.186;2022-11-02T06:12:15;11.20;99.90
52543;DHT22;38449;52.696;6.186;2022-11-02T06:14:40;11.20;99.90
52543;DHT22;38449;52.696;6.186;2022-11-02T06:17:06;11.20;99.90
52543;DHT22;38449;52.696;6.186;2022-11-02T06:19:31;11.20;99.90
52543;DHT22;38449;52.696;6.186;2022-11-02T06:21:57;11.20;99.90
52543;DHT22;38449;52.696;6.186;2022-11-02T06:24:22;11.20;99.90
52543;DHT22;38449;52.696;6.186;2022-11-02T06:26:48;11.20;99.90
52543;DHT22;38449;52.696;6.186;2022-11-02T06:29:13;11.20;99.90
52543;DHT22;38449;52.696;6.186;2022-11-02T06:31:39;11.20;99.90
52543;DHT22;38449;52.696;6.186;2022-11-02T06:34:05;11.10;99.90
52543;DHT22;38449;52.696;6.186;2022-11-02T06:36:31;11.10;99.90
52543;DHT22;38449;52.696;6.186;2022-11-02T06:38:56;11.10;99.90
52543;DHT22;38449;52.696;6.186;2022-11-02T06:41:22;11.00;99.90
52543;DHT22;38449;52.696;6.186;2022-11-02T06:43:47;11.00;99.90
52543;DHT22;38449;52.696;6.186;2022-11-02T06:46:13;11.00;99.90
52543;DHT22;38449;52.696;6.186;2022-11-02T06:48:39;11.00;99.90
52543;DHT22;38449;52.696;6.186;2022-11-02T06:51:05;11.00;99.90
52543;DHT22;38449;52.696;6.186;2022-11-02T06:53:31;11.10;99.90
52543;DHT22;38449;52.696;6.186;2022-11-02T06:55:58;11.10;99.90
52543;DHT22;38449;52.696;6.186;2022-11-02T06:58:24;11.10;99.90
52543;DHT22;38449;52.696;6.186;2022-11-02T07:00:57;11.10;99.90
52543;DHT22;38449;52.696;6.186;2022-11-02T07:03:23;11.20;99.90
52543;DHT22;38449;52.696;6.186;2022-11-02T07:05:49;11.30;99.90
52543;DHT22;38449;52.696;6.186;2022-11-02T07:08:16;11.30;99.90
52543;DHT22;38449;52.696;6.186;2022-11-02T07:10:41;11.30;99.90
52543;DHT22;38449;52.696;6.186;2022-11-02T07:13:07;11.30;99.90
52543;DHT22;38449;52.696;6.186;2022-11-02T07:15:32;11.30;99.90
52543;DHT22;38449;52.696;6.186;2022-11-02T07:17:58;11.30;99.90
52543;DHT22;38449;52.696;6.186;2022-11-02T07:20:23;11.40;99.90
52543;DHT22;38449;52.696;6.186;2022-11-02T07:22:58;11.40;99.90
52543;DHT22;38449;52.696;6.186;2022-11-02T07:25:26;11.50;99.90
52543;DHT22;38449;52.696;6.186;2022-11-02T07:27:53;11.60;99.90
52543;DHT22;38449;52.696;6.186;2022-11-02T07:30:20;11.60;99.90
52543;DHT22;38449;52.696;6.186;2022-11-02T07:32:46;11.70;99.90
52543;DHT22;38449;52.696;6.186;2022-11-02T07:35:13;11.70;99.90
52543;DHT22;38449;52.696;6.186;2022-11-02T07:37:40;11.80;99.90
52543;DHT22;38449;52.696;6.186;2022-11-02T07:40:07;11.70;99.90
52543;DHT22;38449;52.696;6.186;2022-11-02T07:42:33;11.70;99.90
52543;DHT22;38449;52.696;6.186;2022-11-02T07:44:59;11.70;99.90
52543;DHT22;38449;52.696;6.186;2022-11-02T07:47:25;11.70;99.90
52543;DHT22;38449;52.696;6.186;2022-11-02T07:49:51;11.70;99.90
52543;DHT22;38449;52.696;6.186;2022-11-02T07:52:16;11.70;99.90
52543;DHT22;38449;52.696;6.186;2022-11-02T07:54:42;11.70;99.90
52543;DHT22;38449;52.696;6.186;2022-11-02T07:57:08;11.70;99.90
52543;DHT22;38449;52.696;6.186;2022-11-02T07:59:33;11.70;99.90
52543;DHT22;38449;52.696;6.186;2022-11-02T08:02:01;11.70;99.90
52543;DHT22;38449;52.696;6.186;2022-11-02T08:04:26;11.70;99.90
52543;DHT22;38449;52.696;6.186;2022-11-02T08:06:52;11.70;99.90
52543;DHT22;38449;52.696;6.186;2022-11-02T08:09:17;11.70;99.90
52543;DHT22;38449;52.696;6.186;2022-11-02T08:11:43;11.70;99.90
52543;DHT22;38449;52.696;6.186;2022-11-02T08:14:09;11.80;99.90
52543;DHT22;38449;52.696;6.186;2022-11-02T08:16:34;11.80;99.90
52543;DHT22;38449;52.696;6.186;2022-11-02T08:19:00;11.90;99.90
52543;DHT22;38449;52.696;6.186;2022-11-02T08:21:25;11.90;99.90
52543;DHT22;38449;52.696;6.186;2022-11-02T08:23:51;11.90;99.90
52543;DHT22;38449;52.696;6.186;2022-11-02T08:26:17;12.00;99.90
52543;DHT22;38449;52.696;6.186;2022-11-02T08:28:42;12.10;99.90
52543;DHT22;38449;52.696;6.186;2022-11-02T08:31:15;12.10;99.90
52543;DHT22;38449;52.696;6.186;2022-11-02T08:33:44;12.20;99.90
52543;DHT22;38449;52.696;6.186;2022-11-02T08:36:10;12.30;99.90
52543;DHT22;38449;52.696;6.186;2022-11-02T08:38:36;12.30;99.90
52543;DHT22;38449;52.696;6.186;2022-11-02T08:41:02;12.30;99.90
52543;DHT22;38449;52.696;6.186;2022-11-02T08:43:28;12.40;99.90
52543;DHT22;38449;52.696;6.186;2022-11-02T08:45:57;12.40;99.90
52543;DHT22;38449;52.696;6.186;2022-11-02T08:48:24;12.50;99.90
52543;DHT22;38449;52.696;6.186;2022-11-02T08:50:50;12.50;99.90
52543;DHT22;38449;52.696;6.186;2022-11-02T08:53:16;12.60;99.90
52543;DHT22;38449;52.696;6.186;2022-11-02T08:55:41;12.50;99.90
52543;DHT22;38449;52.696;6.186;2022-11-02T08:58:07;12.60;99.90
52543;DHT22;38449;52.696;6.186;2022-11-02T09:00:33;12.60;99.90
52543;DHT22;38449;52.696;6.186;2022-11-02T09:03:12;12.70;99.90
52543;DHT22;38449;52.696;6.186;2022-11-02T09:05:43;12.80;99.90
52543;DHT22;38449;52.696;6.186;2022-11-02T09:08:17;12.80;99.90
52543;DHT22;38449;52.696;6.186;2022-11-02T09:10:44;12.90;99.90
52543;DHT22;38449;52.696;6.186;2022-11-02T09:13:11;13.00;99.90
52543;DHT22;38449;52.696;6.186;2022-11-02T09:15:38;13.00;99.90
52543;DHT22;38449;52.696;6.186;2022-11-02T09:18:04;13.00;99.90
52543;DHT22;38449;52.696;6.186;2022-11-02T09:20:30;13.00;99.90
52543;DHT22;38449;52.696;6.186;2022-11-02T09:22:57;13.10;99.90
52543;DHT22;38449;52.696;6.186;2022-11-02T09:25:22;13.20;99.90
52543;DHT22;38449;52.696;6.186;2022-11-02T09:27:52;13.20;99.90
52543;DHT22;38449;52.696;6.186;2022-11-02T09:30:19;13.20;99.90
52543;DHT22;38449;52.696;6.186;2022-11-02T09:32:51;13.30;99.90
52543;DHT22;38449;52.696;6.186;2022-11-02T09:35:17;13.20;99.90
52543;DHT22;38449;52.696;6.186;2022-11-02T09:37:42;13.20;99.90
52543;DHT22;38449;52.696;6.186;2022-11-02T09:40:10;13.20;99.90
52543;DHT22;38449;52.696;6.186;2022-11-02T09:42:47;13.30;99.90
52543;DHT22;38449;52.696;6.186;2022-11-02T09:45:19;13.40;99.90
52543;DHT22;38449;52.696;6.186;2022-11-02T09:47:49;13.40;99.90
52543;DHT22;38449;52.696;6.186;2022-11-02T09:50:22;13.50;99.90
52543;DHT22;38449;52.696;6.186;2022-11-02T09:52:58;13.60;99.90
52543;DHT22;38449;52.696;6.186;2022-11-02T09:55:33;13.70;99.90
52543;DHT22;38449;52.696;6.186;2022-11-02T09:58:05;13.70;99.90
52543;DHT22;38449;52.696;6.186;2022-11-02T10:00:37;13.70;99.90
52543;DHT22;38449;52.696;6.186;2022-11-02T10:06:00;13.60;99.90
52543;DHT22;38449;52.696;6.186;2022-11-02T10:08:41;13.60;99.90
52543;DHT22;38449;52.696;6.186;2022-11-02T10:11:34;13.60;99.90
52543;DHT22;38449;52.696;6.186;2022-11-02T10:14:21;13.60;99.90
52543;DHT22;38449;52.696;6.186;2022-11-02T10:17:03;13.60;99.90
52543;DHT22;38449;52.696;6.186;2022-11-02T10:19:32;13.60;99.90
52543;DHT22;38449;52.696;6.186;2022-11-02T10:21:59;13.60;99.90
52543;DHT22;38449;52.696;6.186;2022-11-02T10:26:57;13.70;99.90
52543;DHT22;38449;52.696;6.186;2022-11-02T10:29:51;13.70;99.90
52543;DHT22;38449;52.696;6.186;2022-11-02T10:32:18;13.70;99.90
52543;DHT22;38449;52.696;6.186;2022-11-02T10:34:45;13.70;99.90
52543;DHT22;38449;52.696;6.186;2022-11-02T10:40:21;13.80;99.90
52543;DHT22;38449;52.696;6.186;2022-11-02T10:43:05;13.90;99.90
52543;DHT22;38449;52.696;6.186;2022-11-02T10:51:07;13.90;99.90
52543;DHT22;38449;52.696;6.186;2022-11-02T10:53:48;13.90;99.90
52543;DHT22;38449;52.696;6.186;2022-11-02T10:56:17;14.00;99.90
52543;DHT22;38449;52.696;6.186;2022-11-02T10:58:50;14.00;99.90
52543;DHT22;38449;52.696;6.186;2022-11-02T11:01:16;14.00;99.90
52543;DHT22;38449;52.696;6.186;2022-11-02T11:06:38;14.30;99.90
52543;DHT22;38449;52.696;6.186;2022-11-02T11:09:25;14.40;99.90
52543;DHT22;38449;52.696;6.186;2022-11-02T11:11:59;14.50;99.90
52543;DHT22;38449;52.696;6.186;2022-11-02T11:14:28;14.50;99.90
52543;DHT22;38449;52.696;6.186;2022-11-02T11:16:56;14.50;99.90
52543;DHT22;38449;52.696;6.186;2022-11-02T11:19:32;14.40;99.90
52543;DHT22;38449;52.696;6.186;2022-11-02T11:21:58;14.50;99.90
52543;DHT22;38449;52.696;6.186;2022-11-02T11:24:29;14.50;99.90
52543;DHT22;38449;52.696;6.186;2022-11-02T11:29:57;14.60;99.90
52543;DHT22;38449;52.696;6.186;2022-11-02T11:32:27;14.70;99.90
52543;DHT22;38449;52.696;6.186;2022-11-02T11:34:56;14.80;99.90
52543;DHT22;38449;52.696;6.186;2022-11-02T11:37:23;14.80;99.90
52543;DHT22;38449;52.696;6.186;2022-11-02T11:39:54;14.90;99.90
52543;DHT22;38449;52.696;6.186;2022-11-02T11:42:22;14.90;99.90
52543;DHT22;38449;52.696;6.186;2022-11-02T11:45:02;14.90;99.90
52543;DHT22;38449;52.696;6.186;2022-11-02T11:47:33;14.90;99.90
52543;DHT22;38449;52.696;6.186;2022-11-02T11:50:02;14.80;99.90
52543;DHT22;38449;52.696;6.186;2022-11-02T11:52:31;14.70;99.90
52543;DHT22;38449;52.696;6.186;2022-11-02T11:55:18;14.70;99.90
52543;DHT22;38449;52.696;6.186;2022-11-02T11:57:44;14.50;99.90
52543;DHT22;38449;52.696;6.186;2022-11-02T12:00:36;14.30;99.90
52543;DHT22;38449;52.696;6.186;2022-11-02T12:03:06;14.20;99.90
52543;DHT22;38449;52.696;6.186;2022-11-02T12:11:21;14.20;99.90
52543;DHT22;38449;52.696;6.186;2022-11-02T12:16:28;14.30;99.90
52543;DHT22;38449;52.696;6.186;2022-11-02T12:19:00;14.50;99.90
52543;DHT22;38449;52.696;6.186;2022-11-02T12:22:00;14.60;99.90
52543;DHT22;38449;52.696;6.186;2022-11-02T12:25:05;14.80;99.90
52543;DHT22;38449;52.696;6.186;2022-11-02T12:27:44;14.90;99.90
52543;DHT22;38449;52.696;6.186;2022-11-02T12:30:33;14.90;99.90
52543;DHT22;38449;52.696;6.186;2022-11-02T12:33:23;15.00;99.90
52543;DHT22;38449;52.696;6.186;2022-11-02T12:38:43;14.90;99.90
52543;DHT22;38449;52.696;6.186;2022-11-02T12:43:49;14.90;99.90
52543;DHT22;38449;52.696;6.186;2022-11-02T12:52:09;14.90;99.90
52543;DHT22;38449;52.696;6.186;2022-11-02T12:54:45;15.00;99.90
52543;DHT22;38449;52.696;6.186;2022-11-02T12:57:14;15.00;99.90
52543;DHT22;38449;52.696;6.186;2022-11-02T12:59:43;15.10;99.90
52543;DHT22;38449;52.696;6.186;2022-11-02T13:02:23;15.20;99.90
52543;DHT22;38449;52.696;6.186;2022-11-02T13:04:57;15.30;99.90
52543;DHT22;38449;52.696;6.186;2022-11-02T13:07:47;15.20;99.90
52543;DHT22;38449;52.696;6.186;2022-11-02T13:10:33;15.00;99.90
52543;DHT22;38449;52.696;6.186;2022-11-02T13:13:03;14.90;99.90
52543;DHT22;38449;52.696;6.186;2022-11-02T13:15:32;14.80;99.90
52543;DHT22;38449;52.696;6.186;2022-11-02T13:18:04;14.60;99.90
52543;DHT22;38449;52.696;6.186;2022-11-02T13:20:43;14.60;99.90
52543;DHT22;38449;52.696;6.186;2022-11-02T13:23:36;14.60;99.90
52543;DHT22;38449;52.696;6.186;2022-11-02T13:26:28;14.60;99.90
52543;DHT22;38449;52.696;6.186;2022-11-02T13:29:00;14.70;99.90
52543;DHT22;38449;52.696;6.186;2022-11-02T13:32:14;14.70;99.90
52543;DHT22;38449;52.696;6.186;2022-11-02T13:34:54;14.80;99.90
52543;DHT22;38449;52.696;6.186;2022-11-02T13:37:25;14.70;99.90
52543;DHT22;38449;52.696;6.186;2022-11-02T13:39:58;14.60;99.90
52543;DHT22;38449;52.696;6.186;2022-11-02T13:51:11;14.40;99.90
52543;DHT22;38449;52.696;6.186;2022-11-02T13:53:40;14.40;99.90
52543;DHT22;38449;52.696;6.186;2022-11-02T13:56:10;14.40;99.90
52543;DHT22;38449;52.696;6.186;2022-11-02T13:58:46;14.40;99.90
52543;DHT22;38449;52.696;6.186;2022-11-02T14:01:16;14.40;99.90
52543;DHT22;38449;52.696;6.186;2022-11-02T14:03:53;14.50;99.90
52543;DHT22;38449;52.696;6.186;2022-11-02T14:06:20;14.50;99.90
52543;DHT22;38449;52.696;6.186;2022-11-02T14:35:21;14.20;99.90
52543;DHT22;38449;52.696;6.186;2022-11-02T14:38:17;14.20;99.90
52543;DHT22;38449;52.696;6.186;2022-11-02T14:40:53;14.10;99.90
52543;DHT22;38449;52.696;6.186;2022-11-02T14:43:52;14.00;99.90
52543;DHT22;38449;52.696;6.186;2022-11-02T14:48:58;14.00;99.90
52543;DHT22;38449;52.696;6.186;2022-11-02T14:51:32;13.90;99.90
52543;DHT22;38449;52.696;6.186;2022-11-02T14:54:03;13.80;99.90
52543;DHT22;38449;52.696;6.186;2022-11-02T15:01:57;13.80;99.90
52543;DHT22;38449;52.696;6.186;2022-11-02T15:04:24;13.80;99.90
52543;DHT22;38449;52.696;6.186;2022-11-02T15:06:55;13.70;99.90
52543;DHT22;38449;52.696;6.186;2022-11-02T15:09:50;13.70;99.90
52543;DHT22;38449;52.696;6.186;2022-11-02T15:12:32;13.60;99.90
52543;DHT22;38449;52.696;6.186;2022-11-02T15:17:51;13.60;99.90
52543;DHT22;38449;52.696;6.186;2022-11-02T15:20:24;13.50;99.90
52543;DHT22;38449;52.696;6.186;2022-11-02T15:25:32;13.40;99.90
52543;DHT22;38449;52.696;6.186;2022-11-02T15:28:12;13.30;99.90
52543;DHT22;38449;52.696;6.186;2022-11-02T15:30:45;13.30;99.90
52543;DHT22;38449;52.696;6.186;2022-11-02T15:33:32;13.20;99.90
52543;DHT22;38449;52.696;6.186;2022-11-02T15:36:00;13.20;99.90
52543;DHT22;38449;52.696;6.186;2022-11-02T15:38:27;13.10;99.90
52543;DHT22;38449;52.696;6.186;2022-11-02T15:41:03;13.00;99.90
52543;DHT22;38449;52.696;6.186;2022-11-02T15:51:59;12.80;99.90
52543;DHT22;38449;52.696;6.186;2022-11-02T16:00:11;12.60;99.90
52543;DHT22;38449;52.696;6.186;2022-11-02T16:02:51;12.50;99.90
52543;DHT22;38449;52.696;6.186;2022-11-02T16:05:24;12.50;99.90
52543;DHT22;38449;52.696;6.186;2022-11-02T16:07:54;12.40;99.90
52543;DHT22;38449;52.696;6.186;2022-11-02T16:10:21;12.40;99.90
52543;DHT22;38449;52.696;6.186;2022-11-02T16:13:05;12.40;99.90
52543;DHT22;38449;52.696;6.186;2022-11-02T16:15:35;12.30;99.90
52543;DHT22;38449;52.696;6.186;2022-11-02T16:18:01;12.20;99.90
52543;DHT22;38449;52.696;6.186;2022-11-02T16:20:28;12.20;99.90
52543;DHT22;38449;52.696;6.186;2022-11-02T16:22:59;12.20;99.90
52543;DHT22;38449;52.696;6.186;2022-11-02T16:25:40;12.20;99.90
52543;DHT22;38449;52.696;6.186;2022-11-02T16:28:23;12.20;99.90
52543;DHT22;38449;52.696;6.186;2022-11-02T16:33:30;12.10;99.90
52543;DHT22;38449;52.696;6.186;2022-11-02T16:35:57;12.10;99.90
52543;DHT22;38449;52.696;6.186;2022-11-02T16:38:24;12.10;99.90
52543;DHT22;38449;52.696;6.186;2022-11-02T16:40:50;12.20;99.90
52543;DHT22;38449;52.696;6.186;2022-11-02T16:43:16;12.20;99.90
52543;DHT22;38449;52.696;6.186;2022-11-02T16:45:42;12.30;99.90
52543;DHT22;38449;52.696;6.186;2022-11-02T16:48:21;12.40;99.90
52543;DHT22;38449;52.696;6.186;2022-11-02T16:51:05;12.40;99.90
52543;DHT22;38449;52.696;6.186;2022-11-02T16:53:33;12.60;99.90
52543;DHT22;38449;52.696;6.186;2022-11-02T16:56:26;12.50;99.90
52543;DHT22;38449;52.696;6.186;2022-11-02T16:59:00;12.50;99.90
52543;DHT22;38449;52.696;6.186;2022-11-02T17:01:33;12.50;99.90
52543;DHT22;38449;52.696;6.186;2022-11-02T17:04:21;12.50;99.90
52543;DHT22;38449;52.696;6.186;2022-11-02T17:06:49;12.50;99.90
52543;DHT22;38449;52.696;6.186;2022-11-02T17:09:28;12.40;99.90
52543;DHT22;38449;52.696;6.186;2022-11-02T17:11:57;12.40;99.90
52543;DHT22;38449;52.696;6.186;2022-11-02T17:14:25;12.40;99.90
52543;DHT22;38449;52.696;6.186;2022-11-02T17:17:02;12.30;99.90
52543;DHT22;38449;52.696;6.186;2022-11-02T17:19:42;12.30;99.90
52543;DHT22;38449;52.696;6.186;2022-11-02T17:22:26;12.20;99.90
52543;DHT22;38449;52.696;6.186;2022-11-02T17:25:32;12.20;99.90
52543;DHT22;38449;52.696;6.186;2022-11-02T17:27:58;12.20;99.90
52543;DHT22;38449;52.696;6.186;2022-11-02T17:33:12;12.10;99.90
52543;DHT22;38449;52.696;6.186;2022-11-02T17:35:47;12.10;99.90
52543;DHT22;38449;52.696;6.186;2022-11-02T17:38:13;12.10;99.90
52543;DHT22;38449;52.696;6.186;2022-11-02T17:40:40;12.10;99.90
52543;DHT22;38449;52.696;6.186;2022-11-02T17:43:05;12.10;99.90
52543;DHT22;38449;52.696;6.186;2022-11-02T17:45:32;12.00;99.90
52543;DHT22;38449;52.696;6.186;2022-11-02T17:47:59;12.00;99.90
52543;DHT22;38449;52.696;6.186;2022-11-02T17:50:27;12.10;99.90
52543;DHT22;38449;52.696;6.186;2022-11-02T17:52:53;12.10;99.90
52543;DHT22;38449;52.696;6.186;2022-11-02T17:55:21;12.10;99.90
52543;DHT22;38449;52.696;6.186;2022-11-02T17:57:47;12.00;99.90
52543;DHT22;38449;52.696;6.186;2022-11-02T18:00:14;12.00;99.90
52543;DHT22;38449;52.696;6.186;2022-11-02T18:02:42;12.00;99.90